sensor_id;sensor_type;location;lat;lon;timestamp;pressure;altitude;pressure_sealevel;temperature;humidity
49973;BME280;65693;49.798;10.968;2023-04-01T00:01:33;96642.53;;;10.72;61.71
49973;BME280;65693;49.798;10.968;2023-04-01T00:04:00;96638.06;;;10.73;61.61
49973;BME280;65693;49.798;10.968;2023-04-01T00:06:27;96635.41;;;10.73;61.61
49973;BME280;65693;49.798;10.968;2023-04-01T00:08:53;96640.72;;;10.73;61.39
49973;BME280;65693;49.798;10.968;2023-04-01T00:11:20;96640.72;;;10.73;61.56
49973;BME280;65693;49.798;10.968;2023-04-01T00:13:47;96643.53;;;10.71;61.56
49973;BME280;65693;49.798;10.968;2023-04-01T00:16:15;96633.00;;;10.70;61.56
49973;BME280;65693;49.798;10.968;2023-04-01T00:18:41;96626.66;;;10.72;61.68
49973;BME280;65693;49.798;10.968;2023-04-01T00:21:08;96631.94;;;10.72;61.76
49973;BME280;65693;49.798;10.968;2023-04-01T00:23:34;96623.13;;;10.72;61.63
49973;BME280;65693;49.798;10.968;2023-04-01T00:26:02;96628.69;;;10.68;61.52
49973;BME280;65693;49.798;10.968;2023-04-01T00:28:29;96622.31;;;10.71;61.54
49973;BME280;65693;49.798;10.968;2023-04-01T00:30:55;96625.91;;;10.70;61.42
49973;BME280;65693;49.798;10.968;2023-04-01T00:33:23;96623.38;;;10.68;61.63
49973;BME280;65693;49.798;10.968;2023-04-01T00:35:49;96614.38;;;10.71;61.39
49973;BME280;65693;49.798;10.968;2023-04-01T00:38:16;96615.44;;;10.68;61.47
49973;BME280;65693;49.798;10.968;2023-04-01T00:40:45;96623.38;;;10.68;61.84
49973;BME280;65693;49.798;10.968;2023-04-01T00:43:13;96619.75;;;10.70;61.54
49973;BME280;65693;49.798;10.968;2023-04-01T00:45:41;96610.31;;;10.67;61.68
49973;BME280;65693;49.798;10.968;2023-04-01T00:48:11;96615.59;;;10.67;61.69
49973;BME280;65693;49.798;10.968;2023-04-01T00:50:41;96620.75;;;10.68;61.63
49973;BME280;65693;49.798;10.968;2023-04-01T00:53:09;96632.59;;;10.64;61.39
49973;BME280;65693;49.798;10.968;2023-04-01T00:55:39;96627.31;;;10.64;61.66
49973;BME280;65693;49.798;10.968;2023-04-01T00:58:13;96620.19;;;10.65;61.39
49973;BME280;65693;49.798;10.968;2023-04-01T01:00:42;96612.22;;;10.65;61.81
49973;BME280;65693;49.798;10.968;2023-04-01T01:03:08;96622.69;;;10.66;61.65
49973;BME280;65693;49.798;10.968;2023-04-01T01:05:43;96607.78;;;10.65;61.56
49973;BME280;65693;49.798;10.968;2023-04-01T01:08:19;96612.94;;;10.67;61.64
49973;BME280;65693;49.798;10.968;2023-04-01T01:10:50;96607.91;;;10.64;61.81
49973;BME280;65693;49.798;10.968;2023-04-01T01:13:19;96609.56;;;10.65;61.66
49973;BME280;65693;49.798;10.968;2023-04-01T01:15:54;96604.56;;;10.62;61.59
49973;BME280;65693;49.798;10.968;2023-04-01T01:18:30;96610.72;;;10.62;61.65
49973;BME280;65693;49.798;10.968;2023-04-01T01:21:31;96606.22;;;10.63;61.49
49973;BME280;65693;49.798;10.968;2023-04-01T01:26:58;96607.22;;;10.62;61.71
49973;BME280;65693;49.798;10.968;2023-04-01T01:30:03;96600.13;;;10.62;61.65
49973;BME280;65693;49.798;10.968;2023-04-01T01:35:40;96601.09;;;10.61;61.49
49973;BME280;65693;49.798;10.968;2023-04-01T01:38:12;96600.13;;;10.62;61.63
49973;BME280;65693;49.798;10.968;2023-04-01T01:40:42;96605.53;;;10.61;61.66
49973;BME280;65693;49.798;10.968;2023-04-01T01:43:12;96603.75;;;10.61;61.44
49973;BME280;65693;49.798;10.968;2023-04-01T01:45:47;96601.09;;;10.61;61.63
49973;BME280;65693;49.798;10.968;2023-04-01T01:48:16;96609.31;;;10.58;61.73
49973;BME280;65693;49.798;10.968;2023-04-01T01:50:45;96607.38;;;10.60;61.50
49973;BME280;65693;49.798;10.968;2023-04-01T01:53:13;96602.31;;;10.57;61.39
49973;BME280;65693;49.798;10.968;2023-04-01T01:55:42;96608.47;;;10.58;61.57
49973;BME280;65693;49.798;10.968;2023-04-01T01:58:11;96604.03;;;10.58;61.73
49973;BME280;65693;49.798;10.968;2023-04-01T02:00:41;96607.63;;;10.57;61.53
49973;BME280;65693;49.798;10.968;2023-04-01T02:03:10;96593.69;;;10.55;61.72
49973;BME280;65693;49.798;10.968;2023-04-01T02:05:39;96614.03;;;10.54;61.36
49973;BME280;65693;49.798;10.968;2023-04-01T02:08:09;96612.38;;;10.53;61.64
49973;BME280;65693;49.798;10.968;2023-04-01T02:10:41;96613.06;;;10.56;61.53
49973;BME280;65693;49.798;10.968;2023-04-01T02:13:13;96606.09;;;10.54;61.57
49973;BME280;65693;49.798;10.968;2023-04-01T02:15:46;96614.03;;;10.54;61.56
49973;BME280;65693;49.798;10.968;2023-04-01T02:18:14;96604.44;;;10.53;61.48
49973;BME280;65693;49.798;10.968;2023-04-01T02:20:43;96603.72;;;10.51;61.67
49973;BME280;65693;49.798;10.968;2023-04-01T02:23:12;96608.06;;;10.52;61.39
49973;BME280;65693;49.798;10.968;2023-04-01T02:25:40;96594.81;;;10.52;61.64
49973;BME280;65693;49.798;10.968;2023-04-01T02:28:09;96588.66;;;10.52;61.50
49973;BME280;65693;49.798;10.968;2023-04-01T02:30:38;96589.50;;;10.52;61.74
49973;BME280;65693;49.798;10.968;2023-04-01T02:33:06;96589.63;;;10.51;61.63
49973;BME280;65693;49.798;10.968;2023-04-01T02:35:34;96593.13;;;10.51;61.42
49973;BME280;65693;49.798;10.968;2023-04-01T02:38:01;96582.53;;;10.51;61.72
49973;BME280;65693;49.798;10.968;2023-04-01T02:40:29;96596.88;;;10.49;61.57
49973;BME280;65693;49.798;10.968;2023-04-01T02:42:57;96608.19;;;10.51;61.75
49973;BME280;65693;49.798;10.968;2023-04-01T02:45:24;96604.69;;;10.50;61.53
49973;BME280;65693;49.798;10.968;2023-04-01T02:47:50;96606.50;;;10.50;61.74
49973;BME280;65693;49.798;10.968;2023-04-01T02:50:16;96607.34;;;10.50;61.69
49973;BME280;65693;49.798;10.968;2023-04-01T02:52:43;96607.34;;;10.50;61.48
49973;BME280;65693;49.798;10.968;2023-04-01T02:55:09;96607.34;;;10.50;61.45
49973;BME280;65693;49.798;10.968;2023-04-01T02:57:37;96603.84;;;10.50;61.53
49973;BME280;65693;49.798;10.968;2023-04-01T03:00:04;96614.56;;;10.48;61.44
49973;BME280;65693;49.798;10.968;2023-04-01T03:02:36;96609.28;;;10.48;61.42
49973;BME280;65693;49.798;10.968;2023-04-01T03:05:03;96607.59;;;10.47;61.76
49973;BME280;65693;49.798;10.968;2023-04-01T03:07:30;96609.28;;;10.48;61.56
49973;BME280;65693;49.798;10.968;2023-04-01T03:09:57;96620.72;;;10.49;61.63
49973;BME280;65693;49.798;10.968;2023-04-01T03:12:23;96608.56;;;10.46;61.72
49973;BME280;65693;49.798;10.968;2023-04-01T03:14:51;96606.78;;;10.47;61.67
49973;BME280;65693;49.798;10.968;2023-04-01T03:17:17;96613.75;;;10.48;61.62
49973;BME280;65693;49.798;10.968;2023-04-01T03:19:44;96621.81;;;10.46;61.47
49973;BME280;65693;49.798;10.968;2023-04-01T03:22:11;96618.19;;;10.47;61.38
49973;BME280;65693;49.798;10.968;2023-04-01T03:24:37;96617.38;;;10.47;61.64
49973;BME280;65693;49.798;10.968;2023-04-01T03:27:03;96619.19;;;10.46;61.32
49973;BME280;65693;49.798;10.968;2023-04-01T03:29:30;96619.31;;;10.45;61.48
49973;BME280;65693;49.798;10.968;2023-04-01T03:31:58;96627.28;;;10.45;61.72
49973;BME280;65693;49.798;10.968;2023-04-01T03:34:24;96630.91;;;10.44;61.66
49973;BME280;65693;49.798;10.968;2023-04-01T03:36:51;96630.75;;;10.45;61.70
49973;BME280;65693;49.798;10.968;2023-04-01T03:39:17;96620.16;;;10.45;61.57
49973;BME280;65693;49.798;10.968;2023-04-01T03:41:44;96621.97;;;10.45;61.38
49973;BME280;65693;49.798;10.968;2023-04-01T03:44:10;96624.63;;;10.45;61.42
49973;BME280;65693;49.798;10.968;2023-04-01T03:46:37;96633.38;;;10.45;61.54
49973;BME280;65693;49.798;10.968;2023-04-01T03:49:07;96622.25;;;10.42;61.49
49973;BME280;65693;49.798;10.968;2023-04-01T03:51:36;96624.75;;;10.43;61.55
49973;BME280;65693;49.798;10.968;2023-04-01T03:54:03;96620.44;;;10.42;61.79
49973;BME280;65693;49.798;10.968;2023-04-01T03:56:29;96631.88;;;10.43;61.64
49973;BME280;65693;49.798;10.968;2023-04-01T03:58:56;96622.25;;;10.42;61.79
49973;BME280;65693;49.798;10.968;2023-04-01T04:01:22;96623.19;;;10.40;61.53
49973;BME280;65693;49.798;10.968;2023-04-01T04:03:49;96630.31;;;10.40;61.63
49973;BME280;65693;49.798;10.968;2023-04-01T04:06:18;96633.78;;;10.40;61.54
49973;BME280;65693;49.798;10.968;2023-04-01T04:08:45;96633.66;;;10.42;61.46
49973;BME280;65693;49.798;10.968;2023-04-01T04:11:12;96635.50;;;10.42;61.50
49973;BME280;65693;49.798;10.968;2023-04-01T04:13:38;96627.41;;;10.43;61.15
49973;BME280;65693;49.798;10.968;2023-04-01T04:16:05;96631.03;;;10.42;61.50
49973;BME280;65693;49.798;10.968;2023-04-01T04:18:32;96634.66;;;10.41;61.38
49973;BME280;65693;49.798;10.968;2023-04-01T04:20:59;96633.66;;;10.42;61.29
49973;BME280;65693;49.798;10.968;2023-04-01T04:23:27;96637.41;;;10.39;61.54
49973;BME280;65693;49.798;10.968;2023-04-01T04:25:56;96635.63;;;10.40;61.67
49973;BME280;65693;49.798;10.968;2023-04-01T04:28:24;96638.28;;;10.40;61.63
49973;BME280;65693;49.798;10.968;2023-04-01T04:30:51;96632.84;;;10.42;61.51
49973;BME280;65693;49.798;10.968;2023-04-01T04:33:18;96644.25;;;10.42;61.48
49973;BME280;65693;49.798;10.968;2023-04-01T04:35:44;96641.91;;;10.39;61.48
49973;BME280;65693;49.798;10.968;2023-04-01T04:38:11;96640.06;;;10.39;61.53
49973;BME280;65693;49.798;10.968;2023-04-01T04:40:40;96654.97;;;10.40;61.29
49973;BME280;65693;49.798;10.968;2023-04-01T04:43:06;96653.31;;;10.39;61.55
49973;BME280;65693;49.798;10.968;2023-04-01T04:45:33;96648.00;;;10.39;61.61
49973;BME280;65693;49.798;10.968;2023-04-01T04:47:59;96649.84;;;10.39;61.64
49973;BME280;65693;49.798;10.968;2023-04-01T04:50:26;96655.25;;;10.37;61.69
49973;BME280;65693;49.798;10.968;2023-04-01T04:52:52;96652.47;;;10.39;61.45
49973;BME280;65693;49.798;10.968;2023-04-01T04:55:19;96657.63;;;10.40;61.40
49973;BME280;65693;49.798;10.968;2023-04-01T04:57:46;96651.50;;;10.40;61.32
49973;BME280;65693;49.798;10.968;2023-04-01T05:00:13;96652.47;;;10.39;61.32
49973;BME280;65693;49.798;10.968;2023-04-01T05:02:40;96661.41;;;10.38;61.26
49973;BME280;65693;49.798;10.968;2023-04-01T05:05:07;96648.00;;;10.39;61.31
49973;BME280;65693;49.798;10.968;2023-04-01T05:07:34;96643.56;;;10.40;61.51
49973;BME280;65693;49.798;10.968;2023-04-01T05:10:00;96648.84;;;10.40;61.51
49973;BME280;65693;49.798;10.968;2023-04-01T05:12:26;96651.78;;;10.37;61.56
49973;BME280;65693;49.798;10.968;2023-04-01T05:14:54;96648.97;;;10.38;61.30
49973;BME280;65693;49.798;10.968;2023-04-01T05:17:20;96651.63;;;10.38;61.46
49973;BME280;65693;49.798;10.968;2023-04-01T05:19:47;96651.22;;;10.33;61.34
49973;BME280;65693;49.798;10.968;2023-04-01T05:22:13;96657.47;;;10.32;61.18
49973;BME280;65693;49.798;10.968;2023-04-01T05:24:40;96650.34;;;10.33;61.23
49973;BME280;65693;49.798;10.968;2023-04-01T05:27:06;96653.84;;;10.33;61.18
49973;BME280;65693;49.798;10.968;2023-04-01T05:29:32;96652.06;;;10.34;61.53
49973;BME280;65693;49.798;10.968;2023-04-01T05:32:01;96654.72;;;10.34;61.36
49973;BME280;65693;49.798;10.968;2023-04-01T05:34:27;96652.88;;;10.34;61.20
49973;BME280;65693;49.798;10.968;2023-04-01T05:36:54;96655.41;;;10.36;61.41
49973;BME280;65693;49.798;10.968;2023-04-01T05:39:20;96658.88;;;10.36;61.31
49973;BME280;65693;49.798;10.968;2023-04-01T05:41:47;96658.31;;;10.33;61.38
49973;BME280;65693;49.798;10.968;2023-04-01T05:44:13;96660.69;;;10.36;61.25
49973;BME280;65693;49.798;10.968;2023-04-01T05:46:39;96650.13;;;10.36;61.30
49973;BME280;65693;49.798;10.968;2023-04-01T05:49:07;96651.09;;;10.35;61.23
49973;BME280;65693;49.798;10.968;2023-04-01T05:51:34;96652.75;;;10.36;61.18
49973;BME280;65693;49.798;10.968;2023-04-01T05:54:00;96656.78;;;10.30;61.46
49973;BME280;65693;49.798;10.968;2023-04-01T05:56:27;96649.66;;;10.31;61.36
49973;BME280;65693;49.798;10.968;2023-04-01T05:58:54;96661.91;;;10.32;61.31
49973;BME280;65693;49.798;10.968;2023-04-01T06:01:20;96657.34;;;10.34;61.19
49973;BME280;65693;49.798;10.968;2023-04-01T06:03:46;96655.66;;;10.33;61.13
49973;BME280;65693;49.798;10.968;2023-04-01T06:06:16;96655.41;;;10.36;61.03
49973;BME280;65693;49.798;10.968;2023-04-01T06:08:46;96658.88;;;10.36;61.13
49973;BME280;65693;49.798;10.968;2023-04-01T06:11:22;96662.66;;;10.34;61.34
49973;BME280;65693;49.798;10.968;2023-04-01T06:14:10;96658.06;;;10.36;61.08
49973;BME280;65693;49.798;10.968;2023-04-01T06:16:45;96659.84;;;10.35;61.20
49973;BME280;65693;49.798;10.968;2023-04-01T06:19:24;96658.31;;;10.33;61.45
49973;BME280;65693;49.798;10.968;2023-04-01T06:22:17;96654.72;;;10.34;61.57
49973;BME280;65693;49.798;10.968;2023-04-01T06:25:11;96661.91;;;10.32;61.42
49973;BME280;65693;49.798;10.968;2023-04-01T06:27:48;96661.69;;;10.35;61.47
49973;BME280;65693;49.798;10.968;2023-04-01T06:30:29;96654.72;;;10.34;61.34
49973;BME280;65693;49.798;10.968;2023-04-01T06:33:05;96662.78;;;10.32;61.58
49973;BME280;65693;49.798;10.968;2023-04-01T06:35:44;96661.81;;;10.33;61.46
49973;BME280;65693;49.798;10.968;2023-04-01T06:38:33;96672.28;;;10.35;61.33
49973;BME280;65693;49.798;10.968;2023-04-01T06:44:13;96659.16;;;10.33;61.45
49973;BME280;65693;49.798;10.968;2023-04-01T06:46:45;96666.13;;;10.34;61.64
49973;BME280;65693;49.798;10.968;2023-04-01T06:49:24;96661.81;;;10.33;61.51
49973;BME280;65693;49.798;10.968;2023-04-01T06:51:58;96663.59;;;10.33;61.51
49973;BME280;65693;49.798;10.968;2023-04-01T06:54:31;96659.03;;;10.35;61.27
49973;BME280;65693;49.798;10.968;2023-04-01T06:57:03;96666.00;;;10.36;61.42
49973;BME280;65693;49.798;10.968;2023-04-01T06:59:33;96662.47;;;10.25;61.18
49973;BME280;65693;49.798;10.968;2023-04-01T07:02:05;96666.78;;;10.27;60.64
49973;BME280;65693;49.798;10.968;2023-04-01T07:04:44;96665.78;;;10.18;60.98
49973;BME280;65693;49.798;10.968;2023-04-01T07:07:17;96665.22;;;10.14;61.21
49973;BME280;65693;49.798;10.968;2023-04-01T07:09:50;96664.97;;;10.17;61.23
49973;BME280;65693;49.798;10.968;2023-04-01T07:12:23;96667.47;;;10.19;61.03
49973;BME280;65693;49.798;10.968;2023-04-01T07:14:54;96662.75;;;10.22;60.93
49973;BME280;65693;49.798;10.968;2023-04-01T07:17:25;96656.34;;;10.25;60.80
49973;BME280;65693;49.798;10.968;2023-04-01T07:19:57;96661.22;;;10.30;61.13
49973;BME280;65693;49.798;10.968;2023-04-01T07:22:30;96655.22;;;10.28;61.39
49973;BME280;65693;49.798;10.968;2023-04-01T07:25:04;96663.59;;;10.33;60.97
49973;BME280;65693;49.798;10.968;2023-04-01T07:27:31;96660.94;;;10.33;61.01
49973;BME280;65693;49.798;10.968;2023-04-01T07:29:58;96657.59;;;10.31;60.92
49973;BME280;65693;49.798;10.968;2023-04-01T07:32:32;96667.22;;;10.32;61.24
49973;BME280;65693;49.798;10.968;2023-04-01T07:35:16;96662.78;;;10.32;61.03
49973;BME280;65693;49.798;10.968;2023-04-01T07:37:55;96659.44;;;10.30;61.44
49973;BME280;65693;49.798;10.968;2023-04-01T07:40:32;96663.59;;;10.33;61.29
49973;BME280;65693;49.798;10.968;2023-04-01T07:43:14;96670.59;;;10.34;61.05
49973;BME280;65693;49.798;10.968;2023-04-01T07:45:50;96672.50;;;10.32;61.50
49973;BME280;65693;49.798;10.968;2023-04-01T07:48:23;96668.91;;;10.33;61.38
49973;BME280;65693;49.798;10.968;2023-04-01T07:50:58;96670.03;;;10.30;61.45
49973;BME280;65693;49.798;10.968;2023-04-01T07:53:32;96669.88;;;10.32;61.52
49973;BME280;65693;49.798;10.968;2023-04-01T07:56:06;96677.41;;;10.36;61.74
49973;BME280;65693;49.798;10.968;2023-04-01T07:58:39;96667.50;;;10.29;61.63
49973;BME280;65693;49.798;10.968;2023-04-01T08:01:16;96666.66;;;10.28;61.64
49973;BME280;65693;49.798;10.968;2023-04-01T08:04:00;96673.19;;;10.24;61.84
49973;BME280;65693;49.798;10.968;2023-04-01T08:06:37;96683.66;;;10.25;61.63
49973;BME280;65693;49.798;10.968;2023-04-01T08:09:10;96683.53;;;10.27;61.85
49973;BME280;65693;49.798;10.968;2023-04-01T08:11:51;96674.63;;;10.28;61.99
49973;BME280;65693;49.798;10.968;2023-04-01T08:14:30;96689.38;;;10.31;61.53
49973;BME280;65693;49.798;10.968;2023-04-01T08:17:02;96686.72;;;10.31;61.84
49973;BME280;65693;49.798;10.968;2023-04-01T08:19:37;96689.25;;;10.32;61.77
49973;BME280;65693;49.798;10.968;2023-04-01T08:22:15;96688.41;;;10.32;61.76
49973;BME280;65693;49.798;10.968;2023-04-01T08:24:45;96686.59;;;10.32;61.59
49973;BME280;65693;49.798;10.968;2023-04-01T08:27:16;96693.69;;;10.32;61.45
49973;BME280;65693;49.798;10.968;2023-04-01T08:29:48;96687.44;;;10.33;61.53
49973;BME280;65693;49.798;10.968;2023-04-01T08:32:21;96695.38;;;10.33;61.63
49973;BME280;65693;49.798;10.968;2023-04-01T08:34:55;96692.59;;;10.34;61.79
49973;BME280;65693;49.798;10.968;2023-04-01T08:37:30;96687.59;;;10.31;61.60
49973;BME280;65693;49.798;10.968;2023-04-01T08:40:00;96690.06;;;10.33;61.63
49973;BME280;65693;49.798;10.968;2023-04-01T08:42:52;96690.06;;;10.33;61.63
49973;BME280;65693;49.798;10.968;2023-04-01T08:45:44;96693.69;;;10.32;61.58
49973;BME280;65693;49.798;10.968;2023-04-01T08:51:19;96684.78;;;10.33;61.67
49973;BME280;65693;49.798;10.968;2023-04-01T08:54:16;96684.78;;;10.33;61.83
49973;BME280;65693;49.798;10.968;2023-04-01T08:56:54;96683.97;;;10.32;61.58
49973;BME280;65693;49.798;10.968;2023-04-01T08:59:36;96691.06;;;10.32;61.60
49973;BME280;65693;49.798;10.968;2023-04-01T09:05:22;96691.06;;;10.32;61.79
49973;BME280;65693;49.798;10.968;2023-04-01T09:08:00;96686.72;;;10.31;61.72
49973;BME280;65693;49.798;10.968;2023-04-01T09:13:31;96691.78;;;10.34;61.57
49973;BME280;65693;49.798;10.968;2023-04-01T09:16:13;96695.25;;;10.34;61.43
49973;BME280;65693;49.798;10.968;2023-04-01T09:18:57;96697.06;;;10.34;61.59
49973;BME280;65693;49.798;10.968;2023-04-01T09:21:37;96690.06;;;10.33;61.68
49973;BME280;65693;49.798;10.968;2023-04-01T09:27:05;96691.63;;;10.35;61.64
49973;BME280;65693;49.798;10.968;2023-04-01T09:35:45;96708.09;;;10.39;61.57
49973;BME280;65693;49.798;10.968;2023-04-01T09:38:21;96706.91;;;10.22;64.82
49973;BME280;65693;49.798;10.968;2023-04-01T09:40:54;96700.63;;;10.23;64.32
49973;BME280;65693;49.798;10.968;2023-04-01T09:43:27;96704.13;;;10.23;64.07
49973;BME280;65693;49.798;10.968;2023-04-01T09:46:14;96698.72;;;10.25;63.52
49973;BME280;65693;49.798;10.968;2023-04-01T09:49:06;96696.78;;;10.27;63.68
49973;BME280;65693;49.798;10.968;2023-04-01T09:51:48;96705.41;;;10.29;63.25
49973;BME280;65693;49.798;10.968;2023-04-01T09:54:36;96699.16;;;10.30;63.05
49973;BME280;65693;49.798;10.968;2023-04-01T09:57:27;96700.94;;;10.30;63.12
49973;BME280;65693;49.798;10.968;2023-04-01T10:00:26;96699.97;;;10.31;63.13
49973;BME280;65693;49.798;10.968;2023-04-01T10:03:21;96699.00;;;10.32;62.90
49973;BME280;65693;49.798;10.968;2023-04-01T10:06:25;96713.91;;;10.33;62.87
49973;BME280;65693;49.798;10.968;2023-04-01T10:18:45;96711.13;;;10.34;62.62
49973;BME280;65693;49.798;10.968;2023-04-01T10:21:53;96703.31;;;10.33;62.64
49973;BME280;65693;49.798;10.968;2023-04-01T10:27:44;96702.50;;;10.32;62.63
49973;BME280;65693;49.798;10.968;2023-04-01T10:30:50;96703.31;;;10.33;62.65
49973;BME280;65693;49.798;10.968;2023-04-01T10:36:48;96702.38;;;10.34;62.72
49973;BME280;65693;49.798;10.968;2023-04-01T10:39:37;96695.38;;;10.33;62.62
49973;BME280;65693;49.798;10.968;2023-04-01T10:42:31;96700.66;;;10.33;62.44
49973;BME280;65693;49.798;10.968;2023-04-01T10:48:33;96691.91;;;10.32;62.63
49973;BME280;65693;49.798;10.968;2023-04-01T10:51:17;96695.38;;;10.33;62.74
49973;BME280;65693;49.798;10.968;2023-04-01T10:54:02;96690.06;;;10.33;62.36
49973;BME280;65693;49.798;10.968;2023-04-01T10:56:47;96696.22;;;10.33;62.47
49973;BME280;65693;49.798;10.968;2023-04-01T10:59:28;96681.19;;;10.34;62.61
49973;BME280;65693;49.798;10.968;2023-04-01T11:02:28;96690.81;;;10.35;62.55
49973;BME280;65693;49.798;10.968;2023-04-01T11:05:40;96689.84;;;10.36;62.38
49973;BME280;65693;49.798;10.968;2023-04-01T11:08:51;96691.63;;;10.35;62.35
49973;BME280;65693;49.798;10.968;2023-04-01T11:11:54;96694.28;;;10.35;62.44
49973;BME280;65693;49.798;10.968;2023-04-01T11:14:40;96691.50;;;10.37;62.36
49973;BME280;65693;49.798;10.968;2023-04-01T11:17:42;96684.53;;;10.36;62.44
49973;BME280;65693;49.798;10.968;2023-04-01T11:20:40;96694.16;;;10.37;62.57
49973;BME280;65693;49.798;10.968;2023-04-01T11:23:22;96684.38;;;10.37;62.33
49973;BME280;65693;49.798;10.968;2023-04-01T11:26:01;96689.56;;;10.39;62.29
49973;BME280;65693;49.798;10.968;2023-04-01T11:31:37;96691.50;;;10.37;62.39
49973;BME280;65693;49.798;10.968;2023-04-01T11:34:20;96685.34;;;10.36;62.34
49973;BME280;65693;49.798;10.968;2023-04-01T11:36:58;96686.06;;;10.38;62.50
49973;BME280;65693;49.798;10.968;2023-04-01T11:39:34;96694.69;;;10.40;62.53
49973;BME280;65693;49.798;10.968;2023-04-01T11:42:14;96694.84;;;10.39;62.35
49973;BME280;65693;49.798;10.968;2023-04-01T11:44:51;96697.50;;;10.39;62.35
49973;BME280;65693;49.798;10.968;2023-04-01T11:47:38;96698.31;;;10.39;62.50
49973;BME280;65693;49.798;10.968;2023-04-01T11:50:20;96696.81;;;10.37;62.61
49973;BME280;65693;49.798;10.968;2023-04-01T11:53:02;96695.94;;;10.36;62.33
49973;BME280;65693;49.798;10.968;2023-04-01T11:55:38;96694.84;;;10.39;62.84
49973;BME280;65693;49.798;10.968;2023-04-01T11:58:22;96700.16;;;10.39;62.43
49973;BME280;65693;49.798;10.968;2023-04-01T12:01:12;96700.16;;;10.39;62.43
49973;BME280;65693;49.798;10.968;2023-04-01T12:03:54;96703.78;;;10.38;62.49
49973;BME280;65693;49.798;10.968;2023-04-01T12:06:32;96703.63;;;10.39;62.38
49973;BME280;65693;49.798;10.968;2023-04-01T12:09:12;96699.19;;;10.40;62.28
49973;BME280;65693;49.798;10.968;2023-04-01T12:11:50;96699.19;;;10.40;62.65
49973;BME280;65693;49.798;10.968;2023-04-01T12:14:22;96709.78;;;10.40;62.49
49973;BME280;65693;49.798;10.968;2023-04-01T12:16:59;96707.94;;;10.40;62.35
49973;BME280;65693;49.798;10.968;2023-04-01T12:19:35;96707.94;;;10.40;62.24
49973;BME280;65693;49.798;10.968;2023-04-01T12:22:35;96699.06;;;10.42;62.49
49973;BME280;65693;49.798;10.968;2023-04-01T12:25:33;96695.56;;;10.41;62.26
49973;BME280;65693;49.798;10.968;2023-04-01T12:28:10;96701.81;;;10.40;62.51
49973;BME280;65693;49.798;10.968;2023-04-01T12:30:53;96707.13;;;10.40;62.32
49973;BME280;65693;49.798;10.968;2023-04-01T12:33:46;96706.41;;;10.38;62.32
49973;BME280;65693;49.798;10.968;2023-04-01T12:36:23;96706.28;;;10.39;62.51
49973;BME280;65693;49.798;10.968;2023-04-01T12:39:08;96713.41;;;10.39;62.51
49973;BME280;65693;49.798;10.968;2023-04-01T12:41:49;96713.41;;;10.39;62.60
49973;BME280;65693;49.798;10.968;2023-04-01T12:44:29;96704.47;;;10.40;62.43
49973;BME280;65693;49.798;10.968;2023-04-01T12:47:17;96700.97;;;10.39;62.32
49973;BME280;65693;49.798;10.968;2023-04-01T12:50:14;96705.28;;;10.40;62.47
49973;BME280;65693;49.798;10.968;2023-04-01T12:52:52;96707.13;;;10.40;62.40
49973;BME280;65693;49.798;10.968;2023-04-01T12:55:36;96700.97;;;10.39;62.54
49973;BME280;65693;49.798;10.968;2023-04-01T12:58:42;96706.16;;;10.41;62.52
49973;BME280;65693;49.798;10.968;2023-04-01T13:01:27;96707.13;;;10.40;62.40
49973;BME280;65693;49.798;10.968;2023-04-01T13:04:25;96712.28;;;10.42;62.32
49973;BME280;65693;49.798;10.968;2023-04-01T13:07:09;96708.91;;;10.39;62.41
49973;BME280;65693;49.798;10.968;2023-04-01T13:09:45;96706.28;;;10.39;62.40
49973;BME280;65693;49.798;10.968;2023-04-01T13:12:33;96715.88;;;10.40;62.65
49973;BME280;65693;49.798;10.968;2023-04-01T13:15:13;96720.25;;;10.42;62.45
49973;BME280;65693;49.798;10.968;2023-04-01T13:17:50;96714.38;;;10.38;62.64
49973;BME280;65693;49.798;10.968;2023-04-01T13:20:26;96727.34;;;10.41;62.32
49973;BME280;65693;49.798;10.968;2023-04-01T13:23:04;96723.00;;;10.40;62.38
49973;BME280;65693;49.798;10.968;2023-04-01T13:25:39;96719.50;;;10.39;62.44
49973;BME280;65693;49.798;10.968;2023-04-01T13:28:13;96724.00;;;10.39;62.44
49973;BME280;65693;49.798;10.968;2023-04-01T13:30:48;96722.16;;;10.39;62.47
49973;BME280;65693;49.798;10.968;2023-04-01T13:33:22;96724.97;;;10.38;62.33
49973;BME280;65693;49.798;10.968;2023-04-01T13:36:07;96731.94;;;10.39;62.74
49973;BME280;65693;49.798;10.968;2023-04-01T13:38:59;96728.31;;;10.40;62.60
49973;BME280;65693;49.798;10.968;2023-04-01T13:41:42;96717.72;;;10.40;62.51
49973;BME280;65693;49.798;10.968;2023-04-01T13:44:16;96728.31;;;10.40;62.47
49973;BME280;65693;49.798;10.968;2023-04-01T13:46:58;96727.47;;;10.39;62.48
49973;BME280;65693;49.798;10.968;2023-04-01T13:55:41;96729.13;;;10.40;62.50
49973;BME280;65693;49.798;10.968;2023-04-01T13:58:35;96729.13;;;10.40;62.51
49973;BME280;65693;49.798;10.968;2023-04-01T14:01:06;96729.28;;;10.39;62.53
49973;BME280;65693;49.798;10.968;2023-04-01T14:06:31;96740.56;;;10.41;62.47
49973;BME280;65693;49.798;10.968;2023-04-01T14:09:13;96735.28;;;10.41;62.39
49973;BME280;65693;49.798;10.968;2023-04-01T14:11:48;96732.63;;;10.41;62.57
49973;BME280;65693;49.798;10.968;2023-04-01T14:14:29;96741.56;;;10.40;62.44
49973;BME280;65693;49.798;10.968;2023-04-01T14:17:08;96728.44;;;10.38;62.56
49973;BME280;65693;49.798;10.968;2023-04-01T14:20:04;96742.38;;;10.40;62.62
49973;BME280;65693;49.798;10.968;2023-04-01T14:22:45;96739.88;;;10.39;62.40
49973;BME280;65693;49.798;10.968;2023-04-01T14:25:34;96745.03;;;10.40;62.74
49973;BME280;65693;49.798;10.968;2023-04-01T14:28:14;96744.19;;;10.40;62.75
49973;BME280;65693;49.798;10.968;2023-04-01T14:30:59;96744.06;;;10.42;62.45